Latest Weather Observations for Whyalla

IDS60801

Issued at 11:31 pm CST Tuesday 26 July 2016 (issued every 30 minutes, with the page automatically refreshed every 10 minutes)

About weather observations | Map of weather stations | Latest weather observations for SA | Other Formats
Station Details ID: 018120 Name: WHYALLA AERO Lat: -33.05 Lon: 137.52 Height: 9.3 m
Data from the previous 72 hours. | See also: Recent months at Whyalla
Date/Time
CST
Temp
°C
App
Temp
°C
Dew
Point
°C
Rel
Hum
%
Delta-T
°C
Wind Press
QNH
hPa
Press
MSL
hPa
Rain since
9am
mm
Dir  Spd
km/h
Gust
km/h
Spd
kts
Gust
kts
26/11:30pm 11.0 8.0 9.4 90 0.8 W 15 20 8 11 1017.4 1017.4 4.0
26/11:00pm 11.3 8.0 9.6 89 0.9 W 17 20 9 11 1017.2 1017.2 4.0
26/10:30pm 11.3 9.4 10.5 95 0.4 W 11 17 6 9 1017.1 1017.1 4.0
26/10:09pm 11.4 8.3 10.3 93 0.6 W 17 24 9 13 1016.8 1016.8 4.0
26/10:00pm 11.6 6.9 10.5 93 0.6 W 26 61 14 33 1016.6 1016.6 4.0
26/09:52pm 11.7 6.7 9.6 87 1.1 SW 26 61 14 33 1016.6 1016.6 4.0
26/09:44pm 11.6 9.1 11.0 96 0.3 SW 15 20 8 11 1016.8 1016.8 2.8
26/09:30pm 11.7 9.9 10.8 94 0.5 WSW 11 17 6 9 1016.2 1016.2 2.8
26/09:28pm 11.7 9.5 10.8 94 0.5 WSW 13 17 7 9 1016.2 1016.2 2.8
26/09:06pm 12.1 8.5 10.5 90 0.8 W 20 28 11 15 1016.1 1016.1 2.4
26/09:00pm 12.4 8.4 10.3 87 1.1 W 22 35 12 19 1015.9 1015.9 2.4
26/08:30pm 11.8 8.9 10.9 94 0.5 WNW 17 24 9 13 1015.7 1015.7 2.4
26/08:29pm 11.8 9.3 10.9 94 0.5 WNW 15 24 8 13 1015.6 1015.6 2.4
26/08:00pm 11.6 7.3 10.8 95 0.4 WNW 24 35 13 19 1015.4 1015.4 1.2
26/07:48pm 12.3 7.9 10.5 89 0.9 NW 24 37 13 20 1015.2 1015.2 0.8
26/07:30pm 12.3 8.7 10.4 88 1.0 NNW 20 26 11 14 1015.0 1015.0 0.8
26/07:00pm 12.4 8.7 10.3 87 1.1 NW 20 28 11 15 1014.8 1014.8 0.8
26/06:30pm 13.0 7.6 9.4 79 1.8 NW 28 37 15 20 1014.3 1014.3 0.8
26/06:00pm 13.4 9.4 9.1 75 2.2 NW 20 30 11 16 1014.3 1014.3 0.8
26/05:30pm 13.7 8.2 9.0 73 2.4 NW 28 39 15 21 1014.0 1014.0 0.8
26/05:00pm 14.2 7.8 8.6 69 2.8 NW 32 44 17 24 1014.1 1014.1 0.8
26/04:30pm 13.9 9.1 8.9 72 2.5 NW 24 37 13 20 1014.2 1014.2 0.8
26/04:00pm 13.9 9.2 9.1 73 2.4 WNW 24 43 13 23 1014.4 1014.4 0.8
26/03:30pm 13.4 8.9 10.0 80 1.8 NNW 24 33 13 18 1014.3 1014.3 0.8
26/03:00pm 12.9 7.6 9.7 81 1.6 NNW 28 37 15 20 1014.2 1014.2 0.8
26/02:39pm 12.4 7.0 11.0 91 0.7 NW 30 39 16 21 1014.5 1014.5 0.8
26/02:30pm 11.6 5.4 10.2 91 0.7 WNW 33 43 18 23 1015.2 1015.2 0.8
26/02:15pm 11.6 4.2 9.7 88 1.0 WNW 39 61 21 33 1015.7 1015.7 0.4
26/02:13pm 12.1 5.3 9.3 83 1.4 WNW 35 61 19 33 1015.5 1015.5 0.4
26/02:09pm 13.9 8.2 8.5 70 2.7 WNW 28 46 15 25 1015.2 1015.2 0.0
26/02:00pm 14.6 8.3 7.4 62 3.5 NW 30 44 16 24 1014.9 1014.9 0.0
26/01:30pm 14.6 9.8 7.4 62 3.5 NW 22 37 12 20 1015.2 1015.2 0.0
26/01:00pm 12.9 5.7 7.8 71 2.5 W 35 50 19 27 1016.2 1016.2 0.0
26/12:51pm 13.4 7.7 8.3 71 2.5 W 28 46 15 25 1016.2 1016.2 0.0
26/12:30pm 14.8 8.1 8.3 65 3.3 NW 33 43 18 23 1016.3 1016.3 0.0
26/12:00pm 13.4 7.7 9.8 79 1.8 NW 30 39 16 21 1016.9 1016.9 0.0
26/11:30am 13.3 8.6 9.4 77 2.0 NNW 24 32 13 17 1017.4 1017.4 0.0
26/11:00am 13.0 8.8 9.8 81 1.6 NNW 22 30 12 16 1017.8 1017.8 0.0
26/10:30am 12.4 8.2 9.8 84 1.3 NNW 22 30 12 16 1018.3 1018.3 0.0
26/10:00am 11.8 8.1 9.4 85 1.2 NNW 19 24 10 13 1018.5 1018.5 0.0
26/09:30am 10.8 7.5 9.7 93 0.6 NW 17 22 9 12 1018.7 1018.7 0.0
26/09:00am 10.2 6.8 9.3 94 0.4 NNW 17 22 9 12 1018.5 1018.5 3.2
26/08:30am 9.7 6.7 9.2 97 0.2 NNW 15 20 8 11 1018.4 1018.4 3.2
26/08:00am 9.3 6.2 9.0 98 0.1 NNW 15 17 8 9 1018.5 1018.5 3.2
26/07:30am 8.9 6.2 8.8 99 0.0 NNW 13 17 7 9 1018.7 1018.7 3.2
26/07:00am 8.8 6.4 8.8 100 0.0 NNW 11 15 6 8 1018.7 1018.7 3.2
26/06:30am 8.4 5.9 8.4 100 0.0 N 11 13 6 7 1018.5 1018.5 3.2
26/06:00am 8.7 6.7 8.7 100 0.0 NNW 9 9 5 5 1018.3 1018.3 3.2
26/05:30am 8.5 6.4 8.4 99 0.0 NNW 9 11 5 6 1018.3 1018.3 3.2
26/05:00am 8.5 6.1 8.5 100 0.0 NW 11 15 6 8 1018.4 1018.4 3.2
26/04:30am 8.3 5.8 8.3 100 0.0 WNW 11 13 6 7 1018.3 1018.3 3.2
26/04:00am 7.8 5.2 7.8 100 0.0 NW 11 11 6 6 1018.3 1018.3 3.2
26/03:30am 7.4 4.7 7.4 100 0.0 NW 11 13 6 7 1018.6 1018.6 3.2
26/03:00am 7.7 5.1 7.6 99 0.0 NW 11 13 6 7 1018.6 1018.6 3.2
26/02:30am 7.5 4.4 7.4 99 0.0 NW 13 13 7 7 1018.9 1018.9 3.2
26/02:00am 7.4 4.7 7.3 99 0.0 NNW 11 13 6 7 1019.2 1019.2 3.2
26/01:30am 7.8 5.1 7.5 98 0.1 NW 11 13 6 7 1019.3 1019.3 3.2
26/01:00am 8.7 6.6 8.4 98 0.1 NNW 9 11 5 6 1019.5 1019.5 3.2
26/12:30am 9.0 7.0 8.7 98 0.1 NNW 9 13 5 7 1019.6 1019.6 3.2
26/12:00am 9.0 7.1 8.9 99 0.0 W 9 11 5 6 1019.6 1019.6 3.2
 
Date/Time
CST
Temp
°C
App
Temp
°C
Dew
Point
°C
Rel
Hum
%
Delta-T
°C
Wind Press
QNH
hPa
Press
MSL
hPa
Rain since
9am
mm
Dir  Spd
km/h
Gust
km/h
Spd
kts
Gust
kts
25/11:30pm 9.4 7.6 9.3 99 0.0 NNW 9 11 5 6 1019.7 1019.7 3.2
25/11:00pm 10.0 7.5 9.7 98 0.2 WNW 13 17 7 9 1019.9 1019.9 3.2
25/10:39pm 10.0 6.6 9.2 95 0.4 SW 17 22 9 12 1020.0 1020.0 2.8
25/10:30pm 10.1 7.5 9.2 94 0.4 SW 13 19 7 10 1019.9 1019.9 2.8
25/10:00pm 9.8 8.0 9.3 97 0.2 W 9 11 5 6 1019.9 1019.9 2.8
25/09:30pm 9.8 7.6 9.3 97 0.2 WSW 11 19 6 10 1019.7 1019.7 2.8
25/09:00pm 10.0 8.1 9.2 95 0.4 W 9 11 5 6 1019.7 1019.7 2.8
25/08:30pm 10.6 8.0 9.5 93 0.5 W 13 17 7 9 1019.4 1019.4 2.8
25/08:00pm 11.0 7.3 9.4 90 0.8 W 19 26 10 14 1018.9 1018.9 2.8
25/07:30pm 11.7 8.0 10.1 90 0.8 WNW 20 28 11 15 1018.7 1018.7 2.8
25/07:00pm 12.3 9.6 11.7 96 0.3 WNW 17 22 9 12 1018.5 1018.5 2.8
25/06:30pm 12.2 9.5 11.6 96 0.3 WNW 17 19 9 10 1017.9 1017.9 2.8
25/06:04pm 12.7 10.1 12.1 96 0.3 W 17 22 9 12 1017.7 1017.7 2.8
25/06:00pm 12.7 9.7 12.1 96 0.3 W 19 26 10 14 1017.7 1017.7 2.8
25/05:39pm 13.1 11.7 12.3 95 0.4 SW 11 17 6 9 1017.5 1017.5 0.4
25/05:30pm 13.3 11.8 12.0 92 0.7 W 11 15 6 8 1017.3 1017.3 0.2
25/05:00pm 13.3 10.3 12.0 92 0.7 NW 19 24 10 13 1017.0 1017.0 0.2
25/04:30pm 13.3 9.4 12.0 92 0.7 NW 24 35 13 19 1016.9 1016.9 0.2
25/04:17pm 13.3 10.8 12.2 93 0.6 NW 17 22 9 12 1016.9 1016.9 0.0
25/04:05pm 13.4 10.3 12.1 92 0.7 NW 20 30 11 16 1016.8 1016.8 0.0
25/04:00pm 13.5 9.9 11.9 90 0.9 WNW 22 32 12 17 1016.8 1016.8 0.0
25/03:47pm 13.6 10.4 11.8 89 1.0 NW 20 30 11 16 1016.6 1016.6 0.0
25/03:30pm 13.4 8.4 12.1 92 0.7 WNW 30 43 16 23 1017.0 1017.0 0.0
25/03:25pm 13.5 8.1 11.0 85 1.3 WNW 30 43 16 23 1017.0 1017.0 0.0
25/03:00pm 15.6 11.1 10.2 70 2.8 NW 24 33 13 18 1016.4 1016.4 0.0
25/02:30pm 15.2 9.6 10.2 72 2.6 NW 30 37 16 20 1016.5 1016.5 0.0
25/02:00pm 14.1 9.1 11.1 82 1.6 NW 28 37 15 20 1017.5 1017.5 0.0
25/01:30pm 14.7 8.8 8.9 68 2.9 NW 30 39 16 21 1017.4 1017.4 0.0
25/01:00pm 14.5 8.5 8.5 67 3.0 NW 30 37 16 20 1018.0 1018.0 0.0
25/12:30pm 15.9 9.5 8.6 62 3.7 NW 32 43 17 23 1018.1 1018.1 0.0
25/12:00pm 15.4 10.1 8.6 64 3.4 NW 26 39 14 21 1018.8 1018.8 0.0
25/11:30am 14.7 8.1 8.6 67 3.1 NW 33 43 18 23 1019.5 1019.5 0.0
25/11:00am 14.2 8.6 8.6 69 2.8 NW 28 39 15 21 1019.4 1019.4 0.0
25/10:30am 12.9 7.5 7.8 71 2.5 NNW 26 33 14 18 1019.8 1019.8 0.0
25/10:00am 12.6 7.7 8.3 75 2.1 NNW 24 32 13 17 1019.7 1019.7 0.0
25/09:30am 10.9 5.7 7.4 79 1.7 NNW 24 33 13 18 1019.6 1019.6 0.0
25/09:00am 9.8 5.1 7.6 86 1.0 NNW 22 28 12 15 1019.4 1019.4 0.0
25/08:30am 8.5 4.0 7.0 90 0.7 NW 20 28 11 15 1019.5 1019.5 0.0
25/08:00am 6.4 2.2 5.8 96 0.3 NNW 17 20 9 11 1019.4 1019.4 0.0
25/07:30am 5.4 1.4 5.1 98 0.1 NNW 15 19 8 10 1019.0 1019.0 0.0
25/07:00am 5.7 1.4 5.1 96 0.3 NNW 17 19 9 10 1019.0 1019.0 0.0
25/06:30am 5.5 1.5 5.1 97 0.2 NNW 15 19 8 10 1018.8 1018.8 0.0
25/06:00am 5.6 2.0 5.0 96 0.3 NNW 13 17 7 9 1018.8 1018.8 0.0
25/05:30am 5.5 1.5 4.9 96 0.3 NNW 15 17 8 9 1018.6 1018.6 0.0
25/05:00am 5.7 1.7 5.0 95 0.3 NNW 15 19 8 10 1018.5 1018.5 0.0
25/04:30am 6.2 2.3 5.3 94 0.4 NW 15 17 8 9 1018.2 1018.2 0.0
25/04:00am 5.8 2.1 4.6 92 0.5 NW 13 17 7 9 1018.2 1018.2 0.0
25/03:30am 6.7 2.5 5.5 92 0.5 NW 17 19 9 10 1018.2 1018.2 0.0
25/03:00am 7.1 3.3 5.6 90 0.7 NW 15 19 8 10 1018.2 1018.2 0.0
25/02:30am 7.6 3.4 5.9 89 0.8 NW 17 20 9 11 1018.4 1018.4 0.0
25/02:00am 7.6 3.8 5.9 89 0.8 NW 15 19 8 10 1018.6 1018.6 0.0
25/01:30am 7.1 4.0 5.4 89 0.8 NNW 11 13 6 7 1018.9 1018.9 0.0
25/01:00am 7.8 4.4 5.8 87 0.9 NW 13 17 7 9 1018.9 1018.9 0.0
25/12:30am 8.3 4.5 5.9 85 1.1 NW 15 19 8 10 1018.9 1018.9 0.0
25/12:00am 9.1 5.4 6.2 82 1.3 NW 15 20 8 11 1019.0 1019.0 0.0
 
Date/Time
CST
Temp
°C
App
Temp
°C
Dew
Point
°C
Rel
Hum
%
Delta-T
°C
Wind Press
QNH
hPa
Press
MSL
hPa
Rain since
9am
mm
Dir  Spd
km/h
Gust
km/h
Spd
kts
Gust
kts
24/11:30pm 9.2 5.4 5.9 80 1.5 WNW 15 19 8 10 1018.7 1018.7 0.0
24/11:00pm 9.6 5.5 6.0 78 1.7 WNW 17 20 9 11 1018.6 1018.6 0.0
24/10:30pm 10.0 5.4 6.3 78 1.7 WNW 20 28 11 15 1018.3 1018.3 0.0
24/10:00pm 10.7 5.6 5.9 72 2.2 WNW 22 30 12 16 1018.1 1018.1 0.0
24/09:30pm 11.2 5.6 5.5 68 2.6 W 24 33 13 18 1018.0 1018.0 0.0
24/09:00pm 11.2 6.4 5.5 68 2.6 WNW 20 30 11 16 1017.8 1017.8 0.0
24/08:30pm 11.2 5.0 6.1 71 2.4 W 28 43 15 23 1017.7 1017.7 0.0
24/08:00pm 11.4 4.4 5.9 69 2.6 W 32 43 17 23 1017.1 1017.1 0.0
24/07:30pm 11.6 6.0 5.5 66 2.8 WNW 24 32 13 17 1016.8 1016.8 0.0
24/07:00pm 11.4 5.7 4.8 64 3.0 WNW 24 32 13 17 1016.2 1016.2 0.0
24/06:30pm 11.9 5.7 4.4 60 3.4 WNW 26 41 14 22 1015.9 1015.9 0.0
24/06:00pm 12.5 5.8 3.7 55 3.9 W 28 43 15 23 1015.5 1015.5 0.0
24/05:42pm 13.0 6.4 4.2 55 4.0 W 28 48 15 26 1015.1 1015.1 0.0
24/05:30pm 13.1 6.0 3.7 53 4.2 W 30 41 16 22 1014.9 1014.9 0.0
24/05:00pm 14.0 7.2 2.9 47 4.9 W 28 44 15 24 1014.2 1014.2 0.0
24/04:30pm 13.8 5.6 2.7 47 4.9 W 35 48 19 26 1013.9 1013.9 0.0
24/04:00pm 15.2 7.1 3.0 44 5.5 W 35 52 19 28 1013.3 1013.3 0.0
24/03:30pm 15.3 7.1 2.8 43 5.6 W 35 52 19 28 1013.0 1013.0 0.0
24/03:05pm 15.2 8.2 4.0 47 5.2 WSW 30 52 16 28 1012.8 1012.8 0.0
24/03:00pm 15.7 9.9 4.4 47 5.3 WSW 24 39 13 21 1012.7 1012.7 0.0
24/02:30pm 13.8 6.3 4.4 53 4.3 WSW 33 52 18 28 1012.6 1012.6 0.0
24/02:10pm 15.2 8.6 4.0 47 5.2 W 28 46 15 25 1012.5 1012.5 0.0
24/02:00pm 14.1 8.6 6.0 58 3.9 W 24 35 13 19 1012.7 1012.7 0.0
24/01:30pm 13.8 6.9 4.4 53 4.3 WSW 30 41 16 22 1012.6 1012.6 0.0
24/01:06pm 15.4 7.9 3.2 44 5.5 W 32 50 17 27 1012.5 1012.5 0.0
24/01:00pm 15.1 7.7 4.2 48 5.0 W 32 43 17 23 1012.6 1012.6 0.0
24/12:46pm 14.4 6.4 3.8 49 4.8 W 35 46 19 25 1012.8 1012.8 0.0
24/12:30pm 14.0 4.8 3.5 49 4.7 WNW 41 57 22 31 1013.0 1013.0 0.0
24/12:22pm 14.5 6.6 4.2 50 4.7 WNW 35 57 19 31 1013.1 1013.1 0.0
24/12:00pm 14.3 7.3 5.9 57 4.0 WNW 32 43 17 23 1013.4 1013.4 0.0
24/11:30am 13.1 6.5 6.2 63 3.3 WNW 30 43 16 23 1013.5 1013.5 0.0
24/11:00am 12.8 5.7 5.5 61 3.4 WNW 32 43 17 23 1013.5 1013.5 0.0
24/10:38am 11.4 4.3 5.5 67 2.7 WNW 32 50 17 27 1013.7 1013.7 0.0
24/10:30am 11.2 3.8 4.9 65 2.9 WNW 33 44 18 24 1013.7 1013.7 0.0
24/10:02am 11.0 3.6 4.9 66 2.8 WNW 33 52 18 28 1013.2 1013.2 0.0
24/10:00am 11.2 4.0 4.9 65 2.9 WNW 32 46 17 25 1013.2 1013.2 0.0
24/09:30am 11.1 3.6 3.6 60 3.3 NW 32 46 17 25 1012.8 1012.8 0.0
24/09:21am 11.2 3.7 3.3 58 3.5 NW 32 50 17 27 1012.7 1012.7 0.0
24/09:00am 11.6 3.8 2.6 54 3.9 NNW 33 48 18 26 1012.1 1012.1 0.0
24/08:30am 11.3 4.1 3.1 57 3.6 NNW 30 39 16 21 1011.8 1011.8 0.0
24/08:00am 10.8 4.1 3.4 60 3.2 NNW 28 37 15 20 1011.8 1011.8 0.0
24/07:30am 10.9 4.6 3.5 60 3.3 NNW 26 33 14 18 1012.1 1012.1 0.0
24/07:00am 10.1 6.3 5.7 74 2.0 N 15 22 8 12 1012.3 1012.3 0.0
24/06:30am 9.8 6.4 6.0 77 1.8 N 13 19 7 10 1012.1 1012.1 0.0
24/06:00am 9.6 5.8 5.8 77 1.7 N 15 20 8 11 1012.0 1012.0 0.0
24/05:30am 9.7 5.1 5.5 75 1.9 NNW 19 22 10 12 1012.0 1012.0 0.0
24/05:00am 10.2 6.7 5.4 72 2.2 NW 13 19 7 10 1012.4 1012.4 0.0
24/04:30am 9.7 6.2 5.5 75 1.9 WNW 13 17 7 9 1012.7 1012.7 0.0
24/04:00am 10.8 6.2 5.6 70 2.4 NNW 19 24 10 13 1012.4 1012.4 0.0
24/03:30am 10.8 6.0 4.7 66 2.8 N 19 22 10 12 1012.3 1012.3 0.0
24/03:00am 10.0 5.2 5.4 73 2.1 N 20 22 11 12 1012.2 1012.2 0.0
24/02:30am 8.5 5.1 6.1 85 1.1 NNW 13 17 7 9 1013.1 1013.1 0.0
24/02:00am 6.9 4.5 5.1 88 0.8 N 7 11 4 6 1013.8 1013.8 0.0
24/01:30am 6.1 2.4 4.7 91 0.6 N 13 15 7 8 1014.1 1014.1 0.0
24/01:00am 5.7 2.0 4.5 92 0.5 NNW 13 13 7 7 1014.6 1014.6 0.0
24/12:30am 5.6 1.9 4.2 91 0.6 NNW 13 13 7 7 1015.1 1015.1 0.0
24/12:00am 7.2 4.9 5.0 86 1.0 NNW 6 7 3 4 1015.2 1015.2 0.0

Other Formats:

Comma delimited format used in spreadsheet applications
http://www.bom.gov.au/fwo/IDS60801/IDS60801.95664.axf

JavaScript Object Notation format (JSON) in row-major order
http://www.bom.gov.au/fwo/IDS60801/IDS60801.95664.json